createdAt,value
2019-04-12T00:00:46.819Z,99889.85
2019-04-12T00:03:17.625Z,99904.20
2019-04-12T00:05:48.424Z,99900.06
2019-04-12T00:08:19.402Z,99906.23
2019-04-12T00:10:49.939Z,99909.42
2019-04-12T00:13:20.580Z,99909.66
2019-04-12T00:15:52.697Z,99905.02
2019-04-12T00:18:23.497Z,99913.77
2019-04-12T00:20:54.013Z,99913.19
2019-04-12T00:23:24.741Z,99917.91
2019-04-12T00:25:55.508Z,99915.48
2019-04-12T00:28:26.228Z,99915.61
2019-04-12T00:30:56.868Z,99917.41
2019-04-12T00:33:28.568Z,99915.75
2019-04-12T00:35:59.137Z,99917.52
2019-04-12T00:38:29.810Z,99912.27
2019-04-12T00:41:02.360Z,99919.17
2019-04-12T00:43:34.322Z,99920.59
2019-04-12T00:46:06.259Z,99912.77
2019-04-12T00:48:38.567Z,99914.68
2019-04-12T00:51:11.974Z,99914.99
2019-04-12T00:53:44.661Z,99915.84
2019-04-12T00:56:16.504Z,99917.87
2019-04-12T00:58:47.482Z,99921.17
2019-04-12T01:01:42.833Z,99921.17
2019-04-12T01:04:21.885Z,99923.78
2019-04-12T01:06:52.982Z,99923.59
2019-04-12T01:09:23.349Z,99916.83
2019-04-12T01:11:55.340Z,99918.86
2019-04-12T01:14:28.259Z,99920.17
2019-04-12T01:17:00.753Z,99916.63
2019-04-12T01:19:33.500Z,99919.50
2019-04-12T01:22:08.864Z,99921.12
2019-04-12T01:24:41.074Z,99916.25
2019-04-12T01:27:10.664Z,99920.62
2019-04-12T01:29:41.513Z,99922.20
2019-04-12T01:32:13.416Z,99925.04
2019-04-12T01:34:43.981Z,99926.34
2019-04-12T01:37:14.731Z,99931.22
2019-04-12T01:39:45.382Z,99933.63
2019-04-12T01:42:15.791Z,99935.08
2019-04-12T01:44:46.341Z,99947.78
2019-04-12T01:47:17.018Z,99941.52
2019-04-12T01:49:47.509Z,99946.13
2019-04-12T01:52:19.435Z,99951.24
2019-04-12T01:54:50.030Z,99950.55
2019-04-12T01:57:20.508Z,99948.39
2019-04-12T01:59:51.379Z,99944.62
2019-04-12T02:02:22.469Z,99936.78
2019-04-12T02:04:52.937Z,99939.98
2019-04-12T02:07:23.520Z,99941.17
2019-04-12T02:09:54.565Z,99946.27
2019-04-12T02:12:26.568Z,99951.98
2019-04-12T02:14:57.264Z,99947.72
2019-04-12T02:17:28.088Z,99950.77
2019-04-12T02:19:58.857Z,99942.68
2019-04-12T02:22:29.795Z,99931.02
2019-04-12T02:25:00.506Z,99931.86
2019-04-12T02:27:31.281Z,99931.39
2019-04-12T02:30:04.606Z,99930.75
2019-04-12T02:32:57.125Z,99925.41
2019-04-12T02:35:52.968Z,99920.58
2019-04-12T02:38:24.835Z,99916.39
2019-04-12T02:40:55.954Z,99919.94
2019-04-12T02:43:28.945Z,99923.62
2019-04-12T02:46:05.558Z,99923.04
2019-04-12T02:48:47.631Z,99929.56
2019-04-12T02:51:35.353Z,99922.66
2019-04-12T02:54:25.768Z,99927.77
2019-04-12T02:57:19.650Z,99936.91
2019-04-12T02:59:52.207Z,99942.63
2019-04-12T03:02:25.234Z,99934.41
2019-04-12T03:04:56.485Z,99923.53
2019-04-12T03:07:27.230Z,99937.66
2019-04-12T03:09:59.535Z,99953.45
2019-04-12T03:12:32.758Z,99958.98
2019-04-12T03:15:04.839Z,99957.56
2019-04-12T03:17:35.892Z,99957.41
2019-04-12T03:20:07.740Z,99956.17
2019-04-12T03:22:38.281Z,99967.81
2019-04-12T03:25:09.060Z,99972.34
2019-04-12T03:27:40.731Z,99980.20
2019-04-12T03:30:11.863Z,99975.36
2019-04-12T03:32:42.810Z,99982.64
2019-04-12T03:35:15.065Z,99977.06
2019-04-12T03:37:45.719Z,99975.41
2019-04-12T03:40:16.702Z,99985.88
2019-04-12T03:42:47.582Z,99983.36
2019-04-12T03:45:18.620Z,99981.94
2019-04-12T03:47:50.034Z,99984.11
2019-04-12T03:50:21.132Z,99984.46
2019-04-12T03:52:52.024Z,99983.07
2019-04-12T03:55:22.985Z,99972.50
2019-04-12T03:57:53.933Z,99968.70
2019-04-12T04:00:25.881Z,99972.50
2019-04-12T04:03:16.659Z,99987.80
2019-04-12T04:05:47.589Z,100002.44
2019-04-12T04:08:18.489Z,100007.75
2019-04-12T04:10:49.306Z,100014.52
2019-04-12T04:13:20.011Z,100017.85
2019-04-12T04:15:52.031Z,100021.77
2019-04-12T04:18:27.631Z,100025.72
2019-04-12T04:21:04.763Z,100029.55
2019-04-12T04:23:59.800Z,100037.38
2019-04-12T04:27:04.735Z,100047.02
2019-04-12T04:29:59.861Z,100049.17
2019-04-12T04:32:47.874Z,100058.70
2019-04-12T04:35:38.526Z,100056.10
2019-04-12T04:38:18.340Z,100052.17
2019-04-12T04:40:52.158Z,100055.98
2019-04-12T04:43:23.123Z,100047.20
2019-04-12T04:45:54.075Z,100052.98
2019-04-12T04:48:25.511Z,100057.36
2019-04-12T04:50:56.492Z,100061.28
2019-04-12T04:53:27.891Z,100067.52
2019-04-12T04:55:59.263Z,100063.45
2019-04-12T04:58:30.514Z,100068.95
2019-04-12T05:01:01.147Z,100063.98
2019-04-12T05:03:31.996Z,100062.34
2019-04-12T05:06:02.435Z,100056.13
2019-04-12T05:08:33.183Z,100050.80
2019-04-12T05:11:05.185Z,100056.98
2019-04-12T05:13:36.320Z,100065.08
2019-04-12T05:16:07.578Z,100071.14
2019-04-12T05:18:38.438Z,100078.13
2019-04-12T05:21:09.534Z,100076.46
2019-04-12T05:23:40.150Z,100079.76
2019-04-12T05:26:11.673Z,100071.08
2019-04-12T05:28:42.483Z,100066.22
2019-04-12T05:31:13.383Z,100066.95
2019-04-12T05:33:44.213Z,100064.70
2019-04-12T05:36:15.486Z,100065.44
2019-04-12T05:38:46.071Z,100064.58
2019-04-12T05:41:17.048Z,100056.56
2019-04-12T05:43:50.444Z,100057.48
2019-04-12T05:46:38.896Z,100050.21
2019-04-12T05:49:28.389Z,100048.42
2019-04-12T05:51:59.538Z,100041.70
2019-04-12T05:54:30.341Z,100047.73
2019-04-12T05:57:01.328Z,100055.26
2019-04-12T05:59:35.637Z,100057.46
2019-04-12T06:02:29.720Z,100055.44
2019-04-12T06:05:00.362Z,100067.23
2019-04-12T06:07:30.983Z,100067.13
2019-04-12T06:10:01.749Z,100069.70
2019-04-12T06:12:33.348Z,100077.57
2019-04-12T06:15:04.253Z,100054.95
2019-04-12T06:17:36.643Z,100080.59
2019-04-12T06:20:25.405Z,100081.01
2019-04-12T06:22:57.330Z,100071.00
2019-04-12T06:25:32.524Z,100091.23
2019-04-12T06:28:03.685Z,100091.56
2019-04-12T06:30:37.555Z,100092.09
2019-04-12T06:33:09.033Z,100092.63
2019-04-12T06:35:39.725Z,100089.52
2019-04-12T06:38:10.552Z,100094.86
2019-04-12T06:40:41.113Z,100087.05
2019-04-12T06:43:12.109Z,100114.86
2019-04-12T06:45:43.235Z,100110.73
2019-04-12T06:48:14.233Z,100112.77
2019-04-12T06:50:51.636Z,100116.04
2019-04-12T06:53:22.626Z,100123.44
2019-04-12T06:56:06.345Z,100133.35
2019-04-12T06:58:37.178Z,100132.25
2019-04-12T07:01:20.651Z,100134.41
2019-04-12T07:04:03.642Z,100142.20
2019-04-12T07:06:34.239Z,100152.70
2019-04-12T07:09:07.005Z,100144.95
2019-04-12T07:11:37.651Z,100148.37
2019-04-12T07:14:08.307Z,100143.23
2019-04-12T07:16:39.059Z,100150.92
2019-04-12T07:19:09.835Z,100151.06
2019-04-12T07:21:40.635Z,100158.77
2019-04-12T07:24:11.118Z,100162.14
2019-04-12T07:26:41.731Z,100156.34
2019-04-12T07:29:12.150Z,100157.06
2019-04-12T07:31:42.995Z,100155.26
2019-04-12T07:34:13.702Z,100148.23
2019-04-12T07:36:44.433Z,100155.14
2019-04-12T07:39:15.617Z,100155.87
2019-04-12T07:41:48.005Z,100153.84
2019-04-12T07:44:18.712Z,100158.42
2019-04-12T07:46:49.492Z,100149.92
2019-04-12T07:49:20.387Z,100159.40
2019-04-12T07:52:06.142Z,100156.44
2019-04-12T07:55:01.507Z,100161.02
2019-04-12T07:57:46.811Z,100165.31
2019-04-12T08:00:29.073Z,100159.63
2019-04-12T08:03:24.706Z,100162.73
2019-04-12T08:06:02.540Z,100160.59
2019-04-12T08:08:34.027Z,100161.44
2019-04-12T08:11:04.582Z,100157.38
2019-04-12T08:13:35.379Z,100154.22
2019-04-12T08:16:06.125Z,100154.48
2019-04-12T08:18:36.780Z,100158.11
2019-04-12T08:21:07.443Z,100162.52
2019-04-12T08:23:38.401Z,100169.21
2019-04-12T08:26:08.862Z,100173.17
2019-04-12T08:28:39.431Z,100176.70
2019-04-12T08:31:10.256Z,100179.05
2019-04-12T08:33:40.822Z,100170.94
2019-04-12T08:36:11.614Z,100176.27
2019-04-12T08:38:42.228Z,100176.50
2019-04-12T08:41:12.805Z,100172.55
2019-04-12T08:43:45.156Z,100158.82
2019-04-12T08:46:18.962Z,100156.75
2019-04-12T08:48:48.666Z,100158.13
2019-04-12T08:51:22.710Z,100155.86
2019-04-12T08:53:52.200Z,100161.30
2019-04-12T08:56:22.616Z,100158.55
2019-04-12T08:58:53.024Z,100160.71
2019-04-12T09:01:23.434Z,100159.95
2019-04-12T09:03:54.460Z,100157.88
2019-04-12T09:06:24.985Z,100156.38
2019-04-12T09:09:13.931Z,100157.67
2019-04-12T09:11:44.819Z,100150.70
2019-04-12T09:14:15.377Z,100159.65
2019-04-12T09:16:46.753Z,100159.36
2019-04-12T09:19:45.343Z,100165.44
2019-04-12T09:22:53.047Z,100156.08
2019-04-12T09:25:46.365Z,100167.47
2019-04-12T09:28:24.632Z,100169.27
2019-04-12T09:30:49.296Z,100186.06
2019-04-12T09:33:20.138Z,100193.23
2019-04-12T09:35:51.438Z,100198.55
2019-04-12T09:38:22.151Z,100196.14
2019-04-12T09:40:56.108Z,100197.16
2019-04-12T09:43:25.623Z,100192.78
2019-04-12T09:45:56.180Z,100182.02
2019-04-12T09:48:26.954Z,100176.58
2019-04-12T09:50:57.312Z,100167.75
2019-04-12T09:53:27.676Z,100171.70
2019-04-12T09:55:58.115Z,100173.78
2019-04-12T09:58:37.280Z,100166.50
2019-04-12T10:01:01.653Z,100168.41
2019-04-12T10:03:32.256Z,100157.80
2019-04-12T10:06:03.881Z,100159.36
2019-04-12T10:08:34.711Z,100157.11
2019-04-12T10:11:05.606Z,100148.05
2019-04-12T10:13:35.855Z,100159.05
2019-04-12T10:16:06.542Z,100164.78
2019-04-12T10:18:36.878Z,100159.09
2019-04-12T10:21:07.196Z,100151.36
2019-04-12T10:23:37.661Z,100157.88
2019-04-12T10:26:08.072Z,100157.48
2019-04-12T10:28:49.599Z,100158.73
2019-04-12T10:31:10.863Z,100157.03
2019-04-12T10:33:41.448Z,100156.71
2019-04-12T10:36:11.891Z,100164.16
2019-04-12T10:38:50.330Z,100160.71
2019-04-12T10:41:20.948Z,100169.08
2019-04-12T10:43:52.825Z,100176.74
2019-04-12T10:46:25.094Z,100171.59
2019-04-12T10:49:15.471Z,100162.00
2019-04-12T10:52:04.731Z,100161.52
2019-04-12T10:54:52.650Z,100163.66
2019-04-12T10:57:23.549Z,100156.25
2019-04-12T10:59:53.939Z,100154.58
2019-04-12T11:02:24.449Z,100160.88
2019-04-12T11:04:54.954Z,100158.63
2019-04-12T11:07:25.428Z,100154.63
2019-04-12T11:09:55.660Z,100155.21
2019-04-12T11:12:26.140Z,100155.55
2019-04-12T11:14:57.246Z,100155.16
2019-04-12T11:17:28.017Z,100151.97
2019-04-12T11:19:58.467Z,100140.31
2019-04-12T11:22:28.910Z,100143.97
2019-04-12T11:25:00.823Z,100141.04
2019-04-12T11:27:31.128Z,100143.86
2019-04-12T11:30:02.043Z,100143.22
2019-04-12T11:32:32.767Z,100143.52
2019-04-12T11:35:03.349Z,100150.19
2019-04-12T11:37:33.673Z,100151.83
2019-04-12T11:40:04.592Z,100150.81
2019-04-12T11:42:35.273Z,100155.55
2019-04-12T11:45:06.235Z,100152.22
2019-04-12T11:47:36.973Z,100151.06
2019-04-12T11:50:09.012Z,100149.44
2019-04-12T11:52:46.736Z,100148.03
2019-04-12T11:55:17.353Z,100158.22
2019-04-12T11:57:48.108Z,100157.94
2019-04-12T12:00:26.337Z,100167.23
2019-04-12T12:03:18.648Z,100165.44
2019-04-12T12:05:58.115Z,100158.65
2019-04-12T12:08:50.575Z,100149.09
2019-04-12T12:11:32.062Z,100147.66
2019-04-12T12:14:16.644Z,100151.02
2019-04-12T12:16:53.513Z,100152.89
2019-04-12T12:19:24.050Z,100152.97
2019-04-12T12:21:54.613Z,100153.72
2019-04-12T12:24:25.138Z,100155.01
2019-04-12T12:26:55.504Z,100154.21
2019-04-12T12:29:25.978Z,100151.45
2019-04-12T12:31:56.554Z,100157.46
2019-04-12T12:34:27.201Z,100157.20
2019-04-12T12:36:58.591Z,100169.11
2019-04-12T12:39:29.426Z,100170.77
2019-04-12T12:42:00.224Z,100179.56
2019-04-12T12:44:33.219Z,100174.04
2019-04-12T12:47:04.565Z,100182.03
2019-04-12T12:49:35.356Z,100185.38
2019-04-12T12:52:06.037Z,100178.05
2019-04-12T12:54:36.788Z,100173.13
2019-04-12T12:57:07.243Z,100170.69
2019-04-12T12:59:37.813Z,100171.71
2019-04-12T13:02:08.486Z,100170.42
2019-04-12T13:04:38.938Z,100163.52
2019-04-12T13:07:09.104Z,100159.14
2019-04-12T13:09:39.724Z,100162.48
2019-04-12T13:12:10.482Z,100171.75
2019-04-12T13:14:40.916Z,100168.34
2019-04-12T13:17:11.419Z,100170.98
2019-04-12T13:19:41.969Z,100163.64
2019-04-12T13:22:12.300Z,100160.54
2019-04-12T13:24:44.234Z,100149.86
2019-04-12T13:27:14.971Z,100151.35
2019-04-12T13:29:45.726Z,100150.30
2019-04-12T13:32:33.999Z,100147.08
2019-04-12T13:35:32.877Z,100142.02
2019-04-12T13:38:17.827Z,100149.44
2019-04-12T13:40:49.256Z,100158.45
2019-04-12T13:43:22.370Z,100160.18
2019-04-12T13:45:56.059Z,100149.46
2019-04-12T13:48:27.436Z,100138.63
2019-04-12T13:50:58.452Z,100136.42
2019-04-12T13:53:29.051Z,100132.84
2019-04-12T13:56:00.240Z,100128.75
2019-04-12T13:58:30.597Z,100132.23
2019-04-12T14:01:01.440Z,100127.25
2019-04-12T14:03:32.331Z,100129.83
2019-04-12T14:06:05.299Z,100134.43
2019-04-12T14:08:36.589Z,100142.33
2019-04-12T14:11:07.136Z,100148.49
2019-04-12T14:13:38.121Z,100135.24
2019-04-12T14:16:08.938Z,100126.39
2019-04-12T14:18:39.462Z,100124.73
2019-04-12T14:21:10.266Z,100123.42
2019-04-12T14:23:41.245Z,100127.92
2019-04-12T14:26:12.097Z,100131.63
2019-04-12T14:28:42.721Z,100135.49
2019-04-12T14:31:20.651Z,100145.99
2019-04-12T14:34:06.545Z,100149.55
2019-04-12T14:36:54.008Z,100146.59
2019-04-12T14:39:24.493Z,100140.52
2019-04-12T14:42:00.672Z,100148.42
2019-04-12T14:44:45.692Z,100151.73
2019-04-12T14:47:45.319Z,100147.38
2019-04-12T14:50:16.551Z,100154.59
2019-04-12T14:52:47.106Z,100147.09
2019-04-12T14:55:18.002Z,100151.03
2019-04-12T14:57:48.312Z,100146.58
2019-04-12T15:00:20.728Z,100149.17
2019-04-12T15:02:51.240Z,100149.55
2019-04-12T15:05:21.829Z,100154.09
2019-04-12T15:07:53.562Z,100145.39
2019-04-12T15:10:24.298Z,100152.55
2019-04-12T15:12:54.611Z,100146.47
2019-04-12T15:15:25.184Z,100162.16
2019-04-12T15:17:56.401Z,100154.08
2019-04-12T15:20:26.979Z,100148.48
2019-04-12T15:22:57.577Z,100145.14
2019-04-12T15:25:28.255Z,100141.70
2019-04-12T15:27:58.669Z,100143.11
2019-04-12T15:30:29.602Z,100156.56
2019-04-12T15:32:59.936Z,100158.58
2019-04-12T15:35:30.185Z,100168.42
2019-04-12T15:38:00.736Z,100171.86
2019-04-12T15:40:31.226Z,100181.38
2019-04-12T15:43:01.622Z,100178.97
2019-04-12T15:45:32.574Z,100181.33
2019-04-12T15:48:04.412Z,100182.17
2019-04-12T15:50:34.662Z,100183.02
2019-04-12T15:53:05.625Z,100172.55
2019-04-12T15:55:36.022Z,100154.07
2019-04-12T15:58:06.928Z,100155.52
2019-04-12T16:00:52.280Z,100169.55
2019-04-12T16:03:24.996Z,100168.13
2019-04-12T16:05:56.338Z,100159.53
2019-04-12T16:08:29.638Z,100150.88
2019-04-12T16:11:05.749Z,100134.13
2019-04-12T16:13:58.488Z,100130.12
2019-04-12T16:16:57.522Z,100124.41
2019-04-12T16:19:27.922Z,100106.45
2019-04-12T16:21:58.469Z,100103.86
2019-04-12T16:24:28.886Z,100095.50
2019-04-12T16:27:00.522Z,100083.85
2019-04-12T16:29:40.883Z,100064.34
2019-04-12T16:32:39.698Z,100084.32
2019-04-12T16:35:48.543Z,100076.83
2019-04-12T16:38:22.950Z,100067.77
2019-04-12T16:40:53.463Z,100061.93
2019-04-12T16:43:24.121Z,100061.98
2019-04-12T16:45:55.217Z,100065.62
2019-04-12T16:48:26.067Z,100075.58
2019-04-12T16:50:56.901Z,100078.07
2019-04-12T16:53:28.031Z,100079.27
2019-04-12T16:55:59.091Z,100085.30
2019-04-12T16:58:29.502Z,100091.94
2019-04-12T17:01:00.062Z,100098.59
2019-04-12T17:03:31.833Z,100099.44
2019-04-12T17:06:02.440Z,100102.66
2019-04-12T17:08:33.148Z,100102.05
2019-04-12T17:11:04.753Z,100108.23
2019-04-12T17:13:35.037Z,100105.38
2019-04-12T17:16:05.772Z,100098.23
2019-04-12T17:18:36.597Z,100102.66
2019-04-12T17:21:07.094Z,100096.83
2019-04-12T17:23:38.073Z,100086.03
2019-04-12T17:26:08.723Z,100080.77
2019-04-12T17:28:39.306Z,100089.21
2019-04-12T17:31:09.775Z,100090.63
2019-04-12T17:33:40.522Z,100088.05
2019-04-12T17:36:11.082Z,100113.65
2019-04-12T17:38:41.266Z,100114.22
2019-04-12T17:41:11.911Z,100114.95
2019-04-12T17:43:43.144Z,100122.96
2019-04-12T17:46:13.693Z,100127.48
2019-04-12T17:49:18.792Z,100131.53
2019-04-12T17:51:54.134Z,100143.33
2019-04-12T17:54:42.213Z,100152.70
2019-04-12T17:57:14.581Z,100158.42
2019-04-12T17:59:45.164Z,100157.73
2019-04-12T18:02:34.568Z,100152.13
2019-04-12T18:05:07.538Z,100146.84
2019-04-12T18:07:38.919Z,100150.83
2019-04-12T18:10:10.806Z,100148.16
2019-04-12T18:12:41.223Z,100147.36
2019-04-12T18:15:14.950Z,100153.48
2019-04-12T18:17:45.648Z,100148.95
2019-04-12T18:20:16.656Z,100143.45
2019-04-12T18:22:47.723Z,100128.81
2019-04-12T18:25:18.701Z,100120.52
2019-04-12T18:27:49.341Z,100114.27
2019-04-12T18:30:20.334Z,100115.63
2019-04-12T18:32:50.957Z,100112.78
2019-04-12T18:35:21.311Z,100124.86
2019-04-12T18:37:52.031Z,100128.61
2019-04-12T18:40:23.041Z,100124.34
2019-04-12T18:42:53.693Z,100123.77
2019-04-12T18:45:24.568Z,100125.94
2019-04-12T18:47:55.211Z,100134.56
2019-04-12T18:50:26.153Z,100129.69
2019-04-12T18:52:57.754Z,100132.30
2019-04-12T18:55:28.860Z,100131.16
2019-04-12T18:57:59.340Z,100133.99
2019-04-12T19:00:30.328Z,100142.80
2019-04-12T19:03:01.419Z,100138.04
2019-04-12T19:05:31.876Z,100144.16
2019-04-12T19:08:02.879Z,100143.31
2019-04-12T19:10:33.694Z,100152.91
2019-04-12T19:13:04.405Z,100153.81
2019-04-12T19:15:35.220Z,100157.62
2019-04-12T19:18:06.873Z,100155.92
2019-04-12T19:20:37.751Z,100148.15
2019-04-12T19:23:08.521Z,100151.20
2019-04-12T19:25:39.292Z,100139.23
2019-04-12T19:28:10.079Z,100139.53
2019-04-12T19:30:43.381Z,100144.62
2019-04-12T19:33:24.634Z,100140.65
2019-04-12T19:36:17.501Z,100138.77
2019-04-12T19:39:05.949Z,100136.38
2019-04-12T19:41:39.537Z,100132.69
2019-04-12T19:44:10.463Z,100134.45
2019-04-12T19:46:41.229Z,100134.91
2019-04-12T19:49:11.993Z,100129.47
2019-04-12T19:51:42.899Z,100123.22
2019-04-12T19:54:13.733Z,100122.03
2019-04-12T19:56:44.491Z,100124.06
2019-04-12T19:59:15.000Z,100129.86
2019-04-12T20:01:45.569Z,100126.05
2019-04-12T20:04:16.295Z,100111.86
2019-04-12T20:06:50.213Z,100126.73
2019-04-12T20:09:20.677Z,100124.23
2019-04-12T20:11:51.760Z,100115.94
2019-04-12T20:14:22.369Z,100114.64
2019-04-12T20:16:53.076Z,100118.55
2019-04-12T20:19:23.789Z,100109.77
2019-04-12T20:21:54.561Z,100102.67
2019-04-12T20:24:25.438Z,100103.59
2019-04-12T20:26:56.916Z,100094.05
2019-04-12T20:29:27.514Z,100094.84
2019-04-12T20:31:58.181Z,100089.18
2019-04-12T20:34:29.024Z,100086.41
2019-04-12T20:36:59.946Z,100092.45
2019-04-12T20:39:30.694Z,100093.95
2019-04-12T20:42:03.832Z,100099.56
2019-04-12T20:44:34.341Z,100109.77
2019-04-12T20:47:05.274Z,100112.38
2019-04-12T20:49:36.400Z,100108.24
2019-04-12T20:52:07.155Z,100104.90
2019-04-12T20:54:37.990Z,100106.48
2019-04-12T20:57:09.314Z,100114.14
2019-04-12T20:59:39.954Z,100108.70
2019-04-12T21:02:10.941Z,100105.17
2019-04-12T21:04:41.732Z,100114.55
2019-04-12T21:07:13.702Z,100115.91
2019-04-12T21:09:47.916Z,100113.87
2019-04-12T21:12:19.279Z,100112.67
2019-04-12T21:14:49.826Z,100111.83
2019-04-12T21:17:21.517Z,100116.23
2019-04-12T21:19:52.315Z,100109.48
2019-04-12T21:22:23.032Z,100106.98
2019-04-12T21:24:53.866Z,100109.84
2019-04-12T21:27:24.730Z,100110.58
2019-04-12T21:29:55.372Z,100112.04
2019-04-12T21:32:26.395Z,100114.48
2019-04-12T21:34:57.176Z,100108.13
2019-04-12T21:37:27.861Z,100114.09
2019-04-12T21:39:58.814Z,100104.34
2019-04-12T21:42:29.839Z,100117.39
2019-04-12T21:45:00.465Z,100120.86
2019-04-12T21:47:31.022Z,100121.59
2019-04-12T21:50:01.494Z,100117.50
2019-04-12T21:52:32.094Z,100124.66
2019-04-12T21:55:02.924Z,100121.66
2019-04-12T21:57:36.906Z,100126.30
2019-04-12T22:00:11.902Z,100124.87
2019-04-12T22:02:43.647Z,100127.38
2019-04-12T22:05:14.659Z,100125.38
2019-04-12T22:07:45.966Z,100124.08
2019-04-12T22:10:18.016Z,100131.53
2019-04-12T22:12:48.504Z,100127.99
2019-04-12T22:15:19.869Z,100119.66
2019-04-12T22:17:50.270Z,100126.42
2019-04-12T22:20:20.826Z,100124.08
2019-04-12T22:22:51.492Z,100120.80
2019-04-12T22:25:21.993Z,100123.79
2019-04-12T22:27:55.594Z,100118.80
2019-04-12T22:30:26.452Z,100119.20
2019-04-12T22:32:57.136Z,100111.48
2019-04-12T22:35:27.873Z,100096.44
2019-04-12T22:37:58.760Z,100094.05
2019-04-12T22:40:29.694Z,100078.45
2019-04-12T22:43:02.334Z,100077.15
2019-04-12T22:45:33.846Z,100063.91
2019-04-12T22:48:05.043Z,100075.27
2019-04-12T22:50:35.813Z,100076.81
2019-04-12T22:53:06.904Z,100086.80
2019-04-12T22:55:37.462Z,100104.50
2019-04-12T22:58:08.175Z,100111.37
2019-04-12T23:00:39.334Z,100114.61
2019-04-12T23:03:09.956Z,100108.19
2019-04-12T23:05:43.009Z,100099.05
2019-04-12T23:08:14.116Z,100094.97
2019-04-12T23:10:46.108Z,100092.88
2019-04-12T23:13:40.954Z,100090.27
2019-04-12T23:16:11.929Z,100088.61
2019-04-12T23:18:42.851Z,100094.34
2019-04-12T23:21:13.721Z,100099.52
2019-04-12T23:23:44.435Z,100094.91
2019-04-12T23:26:15.163Z,100093.83
2019-04-12T23:28:46.461Z,100103.20
2019-04-12T23:31:24.586Z,100103.31
2019-04-12T23:34:03.509Z,100098.83
2019-04-12T23:36:34.073Z,100099.62
2019-04-12T23:39:05.567Z,100104.22
2019-04-12T23:41:36.180Z,100096.50
2019-04-12T23:44:07.151Z,100097.08
2019-04-12T23:46:38.090Z,100096.16
2019-04-12T23:49:08.843Z,100094.73
2019-04-12T23:51:39.888Z,100086.57
2019-04-12T23:54:10.670Z,100100.20
2019-04-12T23:56:41.466Z,100107.62
2019-04-12T23:59:12.069Z,100109.50
